Time,TemperatureF,DewpointF,PressureIn,WindDirection,WindDirectionDegrees,WindSpeedMPH,WindSpeedGustMPH,Humidity,HourlyPrecipIn,Conditions,Clouds,dailyrainin,SoftwareType,DateUTC
2013-07-06 08:55:00,78.1,0.0,30.24,West,270,0.0,0.0,0,0.00,,,0.00,Weather View 32 v70,2013-07-06 12:55:00,
2013-07-06 08:56:00,78.1,0.0,30.24,West,270,0.0,0.0,0,0.00,,,0.00,Weather View 32 v70,2013-07-06 12:56:00,
2013-07-06 08:57:00,78.3,0.0,30.23,West,270,0.0,0.0,0,0.00,,,0.00,Weather View 32 v70,2013-07-06 12:57:00,
2013-07-06 08:59:00,78.3,0.0,30.23,West,270,0.0,0.0,0,0.00,,,0.00,Weather View 32 v70,2013-07-06 12:59:00,
2013-07-06 09:04:00,78.1,0.0,30.23,North,0,1.0,4.0,0,0.00,,,0.00,Weather View 32 v70,2013-07-06 13:04:00,
2013-07-06 09:09:00,78.4,0.0,30.22,West,270,0.0,5.0,0,0.00,,,0.00,Weather View 32 v70,2013-07-06 13:09:00,
2013-07-06 09:14:00,79.0,0.0,30.22,South,180,3.0,5.0,0,0.00,,,0.00,Weather View 32 v70,2013-07-06 13:14:00,
2013-07-06 09:20:00,79.3,0.0,30.23,South,180,3.0,5.0,0,0.00,,,0.00,Weather View 32 v70,2013-07-06 13:20:00,
2013-07-06 09:25:00,79.9,0.0,30.22,North,0,0.0,7.0,0,0.00,,,0.00,Weather View 32 v70,2013-07-06 13:25:00,
2013-07-06 09:30:00,80.6,0.0,30.23,South,180,3.0,7.0,0,0.00,,,0.00,Weather View 32 v70,2013-07-06 13:30:00,
2013-07-06 09:35:00,81.7,0.0,30.24,South,180,3.0,7.0,0,0.00,,,0.00,Weather View 32 v70,2013-07-06 13:35:00,
2013-07-06 09:40:00,82.2,0.0,30.23,WNW,293,1.0,7.0,0,0.00,,,0.00,Weather View 32 v70,2013-07-06 13:40:00,
2013-07-06 09:45:00,83.7,0.0,30.23,West,270,0.0,7.0,0,0.00,,,0.00,Weather View 32 v70,2013-07-06 13:45:00,
2013-07-06 09:51:00,85.1,0.0,30.25,NW,315,2.0,7.0,0,0.00,,,0.00,Weather View 32 v70,2013-07-06 13:51:00,
2013-07-06 09:56:00,86.7,0.0,30.22,SE,135,6.0,8.0,0,0.00,,,0.00,Weather View 32 v70,2013-07-06 13:56:00,
2013-07-06 10:01:00,88.3,0.0,30.22,North,0,4.0,8.0,0,0.00,,,0.00,Weather View 32 v70,2013-07-06 14:01:00,
2013-07-06 10:06:00,87.4,0.0,30.26,West,270,0.0,9.0,0,0.00,,,0.00,Weather View 32 v70,2013-07-06 14:06:00,
2013-07-06 10:11:00,87.1,0.0,30.23,West,270,0.0,9.0,0,0.00,,,0.00,Weather View 32 v70,2013-07-06 14:11:00,
2013-07-06 10:16:00,85.1,0.0,30.23,West,270,0.0,9.0,0,0.00,,,0.00,Weather View 32 v70,2013-07-06 14:16:00,
2013-07-06 10:21:00,85.6,0.0,30.22,WNW,293,0.0,9.0,0,0.00,,,0.00,Weather View 32 v70,2013-07-06 14:21:00,
2013-07-06 10:27:00,86.9,0.0,30.23,North,0,3.0,9.0,0,0.00,,,0.00,Weather View 32 v70,2013-07-06 14:27:00,
2013-07-06 10:32:00,88.3,0.0,30.22,West,270,1.0,9.0,0,0.00,,,0.00,Weather View 32 v70,2013-07-06 14:32:00,
2013-07-06 10:37:00,89.1,0.0,30.24,North,0,5.0,9.0,0,0.00,,,0.00,Weather View 32 v70,2013-07-06 14:37:00,
2013-07-06 10:42:00,90.1,0.0,30.22,West,270,0.0,9.0,0,0.00,,,0.00,Weather View 32 v70,2013-07-06 14:42:00,
2013-07-06 10:47:00,90.1,0.0,30.22,South,180,4.0,9.0,0,0.00,,,0.00,Weather View 32 v70,2013-07-06 14:47:00,
2013-07-06 10:52:00,90.9,0.0,30.21,West,270,3.0,9.0,0,0.00,,,0.00,Weather View 32 v70,2013-07-06 14:52:00,
2013-07-06 10:57:00,91.9,0.0,30.23,West,270,1.0,9.0,0,0.00,,,0.00,Weather View 32 v70,2013-07-06 14:57:00,
2013-07-06 11:03:00,91.4,0.0,30.26,WNW,293,0.0,8.0,0,0.00,,,0.00,Weather View 32 v70,2013-07-06 15:03:00,
2013-07-06 11:08:00,90.3,0.0,30.28,WNW,293,2.0,8.0,0,0.00,,,0.00,Weather View 32 v70,2013-07-06 15:08:00,
2013-07-06 11:13:00,90.0,0.0,30.25,West,270,0.0,8.0,0,0.00,,,0.00,Weather View 32 v70,2013-07-06 15:13:00,
2013-07-06 11:18:00,88.7,0.0,30.25,West,270,0.0,8.0,0,0.00,,,0.00,Weather View 32 v70,2013-07-06 15:18:00,
2013-07-06 11:19:00,88.5,0.0,30.22,West,270,2.0,8.0,0,0.00,,,0.00,Weather View 32 v70,2013-07-06 15:19:00,
2013-07-06 11:24:00,86.4,0.0,30.26,West,270,0.0,8.0,0,0.00,,,0.00,Weather View 32 v70,2013-07-06 15:24:00,
2013-07-06 11:29:00,87.4,0.0,30.25,West,270,0.0,8.0,0,0.00,,,0.00,Weather View 32 v70,2013-07-06 15:29:00,
2013-07-06 11:34:00,90.1,0.0,30.21,South,180,3.0,8.0,0,0.00,,,0.00,Weather View 32 v70,2013-07-06 15:34:00,
2013-07-06 11:40:00,90.9,0.0,30.26,WNW,293,0.0,8.0,0,0.00,,,0.00,Weather View 32 v70,2013-07-06 15:40:00,
2013-07-06 11:45:00,91.8,0.0,30.24,West,270,0.0,8.0,0,0.00,,,0.00,Weather View 32 v70,2013-07-06 15:45:00,
2013-07-06 11:50:00,93.0,0.0,30.23,WNW,293,0.0,7.0,0,0.00,,,0.00,Weather View 32 v70,2013-07-06 15:50:00,
2013-07-06 11:55:00,91.9,0.0,30.26,WNW,293,0.0,6.0,0,0.00,,,0.00,Weather View 32 v70,2013-07-06 15:55:00,
2013-07-06 12:00:00,90.0,0.0,30.28,West,270,0.0,6.0,0,0.00,,,0.00,Weather View 32 v70,2013-07-06 16:00:00,
2013-07-06 12:05:00,90.1,0.0,30.23,West,270,4.0,6.0,0,0.00,,,0.00,Weather View 32 v70,2013-07-06 16:05:00,
2013-07-06 12:10:00,89.2,0.0,30.22,North,0,3.0,6.0,0,0.00,,,0.00,Weather View 32 v70,2013-07-06 16:10:00,
2013-07-06 12:15:00,88.0,0.0,30.22,West,270,0.0,6.0,0,0.00,,,0.00,Weather View 32 v70,2013-07-06 16:15:00,
2013-07-06 12:26:00,86.2,0.0,30.23,West,270,3.0,8.0,0,0.00,,,0.00,Weather View 32 v70,2013-07-06 16:26:00,
2013-07-06 12:33:00,84.6,0.0,30.22,West,270,0.0,9.0,0,0.00,,,0.00,Weather View 32 v70,2013-07-06 16:33:00,
2013-07-06 12:38:00,86.4,0.0,30.21,West,270,0.0,9.0,0,0.00,,,0.00,Weather View 32 v70,2013-07-06 16:38:00,
2013-07-06 12:43:00,89.4,0.0,30.22,West,270,0.0,9.0,0,0.00,,,0.00,Weather View 32 v70,2013-07-06 16:43:00,
2013-07-06 12:49:00,90.5,0.0,30.22,West,270,0.0,9.0,0,0.00,,,0.00,Weather View 32 v70,2013-07-06 16:49:00,
2013-07-06 12:55:00,91.2,0.0,30.20,West,270,0.0,9.0,0,0.00,,,0.00,Weather View 32 v70,2013-07-06 16:55:00,
2013-07-06 13:00:00,91.0,0.0,30.28,West,270,0.0,9.0,0,0.00,,,0.00,Weather View 32 v70,2013-07-06 17:00:00,
2013-07-06 13:05:00,90.3,0.0,30.26,WNW,293,0.0,9.0,0,0.00,,,0.00,Weather View 32 v70,2013-07-06 17:05:00,
2013-07-06 13:10:00,90.3,0.0,30.20,West,270,4.0,9.0,0,0.00,,,0.00,Weather View 32 v70,2013-07-06 17:10:00,
2013-07-06 13:16:00,89.8,0.0,30.20,West,270,0.0,9.0,0,0.00,,,0.00,Weather View 32 v70,2013-07-06 17:16:00,
2013-07-06 13:22:00,90.5,0.0,30.20,WNW,293,0.0,9.0,0,0.00,,,0.00,Weather View 32 v70,2013-07-06 17:22:00,
2013-07-06 13:28:00,90.1,0.0,30.20,North,0,0.0,8.0,0,0.00,,,0.00,Weather View 32 v70,2013-07-06 17:28:00,
2013-07-06 13:33:00,90.3,0.0,30.19,West,270,0.0,6.0,0,0.00,,,0.00,Weather View 32 v70,2013-07-06 17:33:00,
2013-07-06 13:38:00,91.6,0.0,30.19,West,270,2.0,6.0,0,0.00,,,0.00,Weather View 32 v70,2013-07-06 17:38:00,
2013-07-06 13:44:00,91.2,0.0,30.18,West,270,0.0,6.0,0,0.00,,,0.00,Weather View 32 v70,2013-07-06 17:44:00,
2013-07-06 13:49:00,91.9,0.0,30.19,West,270,0.0,7.0,0,0.00,,,0.00,Weather View 32 v70,2013-07-06 17:49:00,
2013-07-06 13:54:00,91.9,0.0,30.19,West,270,0.0,7.0,0,0.00,,,0.00,Weather View 32 v70,2013-07-06 17:54:00,
2013-07-06 14:00:00,92.3,0.0,30.18,North,0,3.0,7.0,0,0.00,,,0.00,Weather View 32 v70,2013-07-06 18:00:00,
2013-07-06 14:05:00,91.8,0.0,30.19,WNW,293,1.0,7.0,0,0.00,,,0.00,Weather View 32 v70,2013-07-06 18:05:00,
2013-07-06 14:10:00,90.3,0.0,30.18,West,270,0.0,7.0,0,0.00,,,0.00,Weather View 32 v70,2013-07-06 18:10:00,
2013-07-06 14:15:00,90.9,0.0,30.17,WNW,293,0.0,7.0,0,0.00,,,0.00,Weather View 32 v70,2013-07-06 18:15:00,
2013-07-06 14:20:00,91.2,0.0,30.25,West,270,0.0,7.0,0,0.00,,,0.00,Weather View 32 v70,2013-07-06 18:20:00,
2013-07-06 14:27:00,91.8,0.0,30.17,West,270,1.0,7.0,0,0.00,,,0.00,Weather View 32 v70,2013-07-06 18:27:00,
2013-07-06 14:35:00,91.8,0.0,30.16,North,0,2.0,7.0,0,0.00,,,0.00,Weather View 32 v70,2013-07-06 18:35:00,
2013-07-06 14:45:00,90.7,0.0,30.19,West,270,0.0,7.0,0,0.00,,,0.00,Weather View 32 v70,2013-07-06 18:45:00,
2013-07-06 14:50:00,90.7,0.0,30.20,ENE,68,3.0,7.0,0,0.00,,,0.00,Weather View 32 v70,2013-07-06 18:50:00,
2013-07-06 14:58:00,89.4,0.0,30.17,West,270,0.0,7.0,0,0.00,,,0.00,Weather View 32 v70,2013-07-06 18:58:00,
2013-07-06 15:03:00,91.0,0.0,30.23,West,270,0.0,7.0,0,0.00,,,0.00,Weather View 32 v70,2013-07-06 19:03:00,
2013-07-06 15:08:00,90.1,0.0,30.19,West,270,0.0,7.0,0,0.00,,,0.00,Weather View 32 v70,2013-07-06 19:08:00,
2013-07-06 15:13:00,90.0,0.0,30.21,WNW,293,0.0,7.0,0,0.00,,,0.00,Weather View 32 v70,2013-07-06 19:13:00,
2013-07-06 15:18:00,90.0,0.0,30.23,WNW,293,0.0,7.0,0,0.00,,,0.00,Weather View 32 v70,2013-07-06 19:18:00,
2013-07-06 15:25:00,91.0,0.0,30.14,West,270,0.0,7.0,0,0.00,,,0.00,Weather View 32 v70,2013-07-06 19:25:00,
2013-07-06 15:30:00,92.7,0.0,30.17,North,0,0.0,7.0,0,0.00,,,0.00,Weather View 32 v70,2013-07-06 19:30:00,
2013-07-06 15:35:00,91.6,0.0,30.17,WNW,293,0.0,7.0,0,0.00,,,0.00,Weather View 32 v70,2013-07-06 19:35:00,
2013-07-06 15:40:00,90.1,0.0,30.17,West,270,1.0,7.0,0,0.00,,,0.00,Weather View 32 v70,2013-07-06 19:40:00,
2013-07-06 15:45:00,90.5,0.0,30.20,West,270,0.0,7.0,0,0.00,,,0.00,Weather View 32 v70,2013-07-06 19:45:00,
2013-07-06 15:50:00,89.2,0.0,30.17,West,270,2.0,5.0,0,0.00,,,0.00,Weather View 32 v70,2013-07-06 19:50:00,
2013-07-06 15:56:00,89.2,0.0,30.19,North,0,0.0,5.0,0,0.00,,,0.00,Weather View 32 v70,2013-07-06 19:56:00,
2013-07-06 16:10:00,90.0,0.0,30.18,ESE,113,0.0,5.0,0,0.00,,,0.00,Weather View 32 v70,2013-07-06 20:10:00,
2013-07-06 16:15:00,90.1,0.0,30.16,WNW,293,0.0,5.0,0,0.00,,,0.00,Weather View 32 v70,2013-07-06 20:15:00,
2013-07-06 16:20:00,89.6,0.0,30.17,WNW,293,0.0,5.0,0,0.00,,,0.00,Weather View 32 v70,2013-07-06 20:20:00,
2013-07-06 16:28:00,89.4,0.0,30.19,WNW,293,0.0,5.0,0,0.00,,,0.00,Weather View 32 v70,2013-07-06 20:28:00,
2013-07-06 16:34:00,90.3,0.0,30.19,East,90,1.0,5.0,0,0.00,,,0.00,Weather View 32 v70,2013-07-06 20:34:00,
2013-07-06 16:39:00,90.1,0.0,30.16,WNW,293,0.0,5.0,0,0.00,,,0.00,Weather View 32 v70,2013-07-06 20:39:00,
2013-07-06 16:44:00,89.4,0.0,30.12,WNW,293,0.0,5.0,0,0.00,,,0.00,Weather View 32 v70,2013-07-06 20:44:00,
2013-07-06 16:50:00,88.3,0.0,30.20,WNW,293,0.0,5.0,0,0.00,,,0.00,Weather View 32 v70,2013-07-06 20:50:00,
2013-07-06 16:55:00,89.2,0.0,30.16,WNW,293,0.0,5.0,0,0.00,,,0.00,Weather View 32 v70,2013-07-06 20:55:00,
2013-07-06 17:00:00,90.0,0.0,30.15,West,270,0.0,7.0,0,0.00,,,0.00,Weather View 32 v70,2013-07-06 21:00:00,
2013-07-06 17:10:00,90.5,0.0,30.14,West,270,0.0,7.0,0,0.00,,,0.00,Weather View 32 v70,2013-07-06 21:10:00,
2013-07-06 17:15:00,90.5,0.0,30.14,East,90,1.0,7.0,0,0.00,,,0.00,Weather View 32 v70,2013-07-06 21:15:00,
2013-07-06 17:20:00,89.6,0.0,30.17,East,90,2.0,7.0,0,0.00,,,0.00,Weather View 32 v70,2013-07-06 21:20:00,
2013-07-06 17:28:00,88.9,0.0,30.12,West,270,0.0,7.0,0,0.01,,,0.01,Weather View 32 v70,2013-07-06 21:28:00,
2013-07-06 17:33:00,87.8,0.0,30.11,West,270,0.0,7.0,0,0.01,,,0.01,Weather View 32 v70,2013-07-06 21:33:00,
2013-07-06 17:38:00,87.4,0.0,30.13,North,0,0.0,7.0,0,0.01,,,0.01,Weather View 32 v70,2013-07-06 21:38:00,
2013-07-06 17:43:00,86.9,0.0,30.12,West,270,0.0,7.0,0,0.01,,,0.01,Weather View 32 v70,2013-07-06 21:43:00,
2013-07-06 17:49:00,86.2,0.0,30.16,West,270,0.0,7.0,0,0.07,,,0.07,Weather View 32 v70,2013-07-06 21:49:00,
2013-07-06 17:54:00,85.8,0.0,30.16,WNW,293,0.0,7.0,0,0.10,,,0.10,Weather View 32 v70,2013-07-06 21:54:00,
2013-07-06 17:59:00,86.2,0.0,30.17,NW,315,0.0,4.0,0,0.10,,,0.10,Weather View 32 v70,2013-07-06 21:59:00,
2013-07-06 18:04:00,85.8,0.0,30.14,West,270,0.0,4.0,0,0.10,,,0.10,Weather View 32 v70,2013-07-06 22:04:00,
2013-07-06 18:09:00,85.3,0.0,30.10,North,0,0.0,4.0,0,0.15,,,0.15,Weather View 32 v70,2013-07-06 22:09:00,
2013-07-06 18:15:00,84.7,0.0,30.16,WNW,293,0.0,4.0,0,0.00,,,0.15,Weather View 32 v70,2013-07-06 22:15:00,
2013-07-06 18:20:00,85.5,0.0,30.11,West,270,0.0,4.0,0,0.15,,,0.15,Weather View 32 v70,2013-07-06 22:20:00,
2013-07-06 18:26:00,84.9,0.0,30.11,WNW,293,0.0,4.0,0,0.15,,,0.15,Weather View 32 v70,2013-07-06 22:26:00,
2013-07-06 18:32:00,85.1,0.0,30.10,West,270,0.0,4.0,0,0.14,,,0.15,Weather View 32 v70,2013-07-06 22:32:00,
2013-07-06 18:37:00,85.1,0.0,30.13,WNW,293,0.0,4.0,0,0.14,,,0.15,Weather View 32 v70,2013-07-06 22:37:00,
2013-07-06 18:42:00,84.7,0.0,30.14,North,0,0.0,4.0,0,0.14,,,0.15,Weather View 32 v70,2013-07-06 22:42:00,
2013-07-06 18:47:00,84.4,0.0,30.09,WNW,293,0.0,4.0,0,0.11,,,0.15,Weather View 32 v70,2013-07-06 22:47:00,
2013-07-06 18:53:00,83.5,0.0,30.17,WNW,293,0.0,4.0,0,0.05,,,0.15,Weather View 32 v70,2013-07-06 22:53:00,
2013-07-06 18:59:00,82.9,0.0,30.15,WNW,293,0.0,4.0,0,0.05,,,0.15,Weather View 32 v70,2013-07-06 22:59:00,
2013-07-06 19:05:00,83.1,0.0,30.18,WNW,293,0.0,4.0,0,0.05,,,0.15,Weather View 32 v70,2013-07-06 23:05:00,
2013-07-06 19:10:00,82.8,0.0,30.18,WNW,293,0.0,4.0,0,0.00,,,0.15,Weather View 32 v70,2013-07-06 23:10:00,
2013-07-06 19:15:00,82.6,0.0,30.18,WNW,293,0.0,4.0,0,0.00,,,0.15,Weather View 32 v70,2013-07-06 23:15:00,
2013-07-06 19:20:00,81.9,0.0,30.16,WNW,293,0.0,4.0,0,0.00,,,0.15,Weather View 32 v70,2013-07-06 23:20:00,
2013-07-06 19:25:00,81.5,0.0,30.16,WNW,293,0.0,3.0,0,0.00,,,0.15,Weather View 32 v70,2013-07-06 23:25:00,
2013-07-06 19:31:00,81.9,0.0,30.18,WNW,293,0.0,2.0,0,0.00,,,0.15,Weather View 32 v70,2013-07-06 23:31:00,
2013-07-06 19:36:00,81.9,0.0,30.12,North,0,2.0,5.0,0,0.00,,,0.15,Weather View 32 v70,2013-07-06 23:36:00,
2013-07-06 19:41:00,82.0,0.0,30.10,West,270,0.0,5.0,0,0.00,,,0.15,Weather View 32 v70,2013-07-06 23:41:00,
2013-07-06 19:46:00,82.2,0.0,30.11,North,0,5.0,5.0,0,0.00,,,0.15,Weather View 32 v70,2013-07-06 23:46:00,
2013-07-06 19:52:00,82.2,0.0,30.10,West,270,0.0,7.0,0,0.00,,,0.15,Weather View 32 v70,2013-07-06 23:52:00,
2013-07-06 19:58:00,81.7,0.0,30.11,West,270,0.0,7.0,0,0.00,,,0.15,Weather View 32 v70,2013-07-06 23:58:00,
2013-07-06 20:03:00,81.5,0.0,30.12,North,0,0.0,7.0,0,0.00,,,0.15,Weather View 32 v70,2013-07-07 00:03:00,
2013-07-06 20:08:00,81.3,0.0,30.11,West,270,1.0,7.0,0,0.00,,,0.15,Weather View 32 v70,2013-07-07 00:08:00,
2013-07-06 20:13:00,81.0,0.0,30.10,West,270,0.0,7.0,0,0.00,,,0.15,Weather View 32 v70,2013-07-07 00:13:00,
2013-07-06 20:19:00,81.0,0.0,30.11,South,180,6.0,9.0,0,0.00,,,0.15,Weather View 32 v70,2013-07-07 00:19:00,
2013-07-06 20:24:00,81.0,0.0,30.10,South,180,3.0,12.0,0,0.00,,,0.15,Weather View 32 v70,2013-07-07 00:24:00,
2013-07-06 20:29:00,80.6,0.0,30.11,West,270,1.0,12.0,0,0.00,,,0.15,Weather View 32 v70,2013-07-07 00:29:00,
2013-07-06 20:35:00,80.4,0.0,30.12,West,270,3.0,12.0,0,0.00,,,0.15,Weather View 32 v70,2013-07-07 00:35:00,
2013-07-06 20:40:00,80.2,0.0,30.11,West,270,1.0,12.0,0,0.00,,,0.15,Weather View 32 v70,2013-07-07 00:40:00,
2013-07-06 20:45:00,80.1,0.0,30.11,North,0,0.0,12.0,0,0.00,,,0.15,Weather View 32 v70,2013-07-07 00:45:00,
2013-07-06 20:51:00,79.7,0.0,30.12,West,270,0.0,12.0,0,0.00,,,0.15,Weather View 32 v70,2013-07-07 00:51:00,
2013-07-06 20:56:00,79.9,0.0,30.12,North,0,3.0,12.0,0,0.00,,,0.15,Weather View 32 v70,2013-07-07 00:56:00,
2013-07-06 21:01:00,79.5,0.0,30.11,West,270,0.0,12.0,0,0.00,,,0.15,Weather View 32 v70,2013-07-07 01:01:00,
2013-07-06 21:10:00,79.0,0.0,30.11,West,270,0.0,12.0,0,0.00,,,0.15,Weather View 32 v70,2013-07-07 01:10:00,
2013-07-06 21:15:00,79.0,0.0,30.12,West,270,0.0,12.0,0,0.00,,,0.15,Weather View 32 v70,2013-07-07 01:15:00,
2013-07-06 21:29:00,78.8,0.0,30.13,West,270,0.0,9.0,0,0.00,,,0.15,Weather View 32 v70,2013-07-07 01:29:00,
2013-07-06 21:35:00,78.4,0.0,30.12,West,270,0.0,9.0,0,0.00,,,0.15,Weather View 32 v70,2013-07-07 01:35:00,
2013-07-06 21:40:00,78.3,0.0,30.14,West,270,1.0,8.0,0,0.00,,,0.15,Weather View 32 v70,2013-07-07 01:40:00,
2013-07-06 21:46:00,78.3,0.0,30.14,West,270,0.0,8.0,0,0.00,,,0.15,Weather View 32 v70,2013-07-07 01:46:00,
2013-07-06 21:51:00,77.9,0.0,30.15,West,270,0.0,8.0,0,0.00,,,0.15,Weather View 32 v70,2013-07-07 01:51:00,
2013-07-06 21:56:00,77.9,0.0,30.16,West,270,0.0,8.0,0,0.00,,,0.15,Weather View 32 v70,2013-07-07 01:56:00,
2013-07-06 22:02:00,77.9,0.0,30.16,West,270,0.0,6.0,0,0.00,,,0.15,Weather View 32 v70,2013-07-07 02:02:00,
2013-07-06 22:07:00,77.5,0.0,30.14,West,270,0.0,6.0,0,0.00,,,0.15,Weather View 32 v70,2013-07-07 02:07:00,
2013-07-06 22:12:00,77.5,0.0,30.16,West,270,0.0,6.0,0,0.00,,,0.15,Weather View 32 v70,2013-07-07 02:12:00,
2013-07-06 22:18:00,77.5,0.0,30.16,West,270,0.0,6.0,0,0.00,,,0.15,Weather View 32 v70,2013-07-07 02:18:00,
2013-07-06 22:23:00,77.5,0.0,30.16,West,270,2.0,6.0,0,0.00,,,0.15,Weather View 32 v70,2013-07-07 02:23:00,
2013-07-06 22:28:00,77.4,0.0,30.16,North,0,2.0,6.0,0,0.00,,,0.15,Weather View 32 v70,2013-07-07 02:28:00,
2013-07-06 22:34:00,77.0,0.0,30.16,West,270,0.0,6.0,0,0.00,,,0.15,Weather View 32 v70,2013-07-07 02:34:00,
2013-07-06 22:39:00,77.2,0.0,30.16,North,0,2.0,6.0,0,0.00,,,0.15,Weather View 32 v70,2013-07-07 02:39:00,